sensor_id;sensor_type;location;lat;lon;timestamp;temperature;humidity
29731;DHT22;16639;51.488;0.152;2023-04-15T00:01:03;8.70;99.90
29731;DHT22;16639;51.488;0.152;2023-04-15T00:03:31;8.70;99.90
29731;DHT22;16639;51.488;0.152;2023-04-15T00:06:01;8.60;99.90
29731;DHT22;16639;51.488;0.152;2023-04-15T00:08:28;8.70;99.90
29731;DHT22;16639;51.488;0.152;2023-04-15T00:10:56;8.70;99.90
29731;DHT22;16639;51.488;0.152;2023-04-15T00:13:29;8.70;99.90
29731;DHT22;16639;51.488;0.152;2023-04-15T00:15:56;8.80;99.90
29731;DHT22;16639;51.488;0.152;2023-04-15T00:18:24;8.70;99.90
29731;DHT22;16639;51.488;0.152;2023-04-15T00:20:51;8.80;99.90
29731;DHT22;16639;51.488;0.152;2023-04-15T00:23:19;8.70;99.90
29731;DHT22;16639;51.488;0.152;2023-04-15T00:25:46;8.70;99.90
29731;DHT22;16639;51.488;0.152;2023-04-15T00:28:14;8.00;99.90
29731;DHT22;16639;51.488;0.152;2023-04-15T00:30:41;8.60;99.90
29731;DHT22;16639;51.488;0.152;2023-04-15T00:33:09;8.60;99.90
29731;DHT22;16639;51.488;0.152;2023-04-15T00:35:36;8.60;99.90
29731;DHT22;16639;51.488;0.152;2023-04-15T00:38:05;8.60;99.90
29731;DHT22;16639;51.488;0.152;2023-04-15T00:40:34;8.60;99.90
29731;DHT22;16639;51.488;0.152;2023-04-15T00:43:02;8.60;99.90
29731;DHT22;16639;51.488;0.152;2023-04-15T00:45:30;8.60;99.90
29731;DHT22;16639;51.488;0.152;2023-04-15T00:47:58;8.60;99.90
29731;DHT22;16639;51.488;0.152;2023-04-15T00:50:25;8.80;99.90
29731;DHT22;16639;51.488;0.152;2023-04-15T00:52:53;8.60;99.90
29731;DHT22;16639;51.488;0.152;2023-04-15T00:55:20;8.60;99.90
29731;DHT22;16639;51.488;0.152;2023-04-15T00:57:48;8.40;99.90
29731;DHT22;16639;51.488;0.152;2023-04-15T01:00:15;8.50;99.90
29731;DHT22;16639;51.488;0.152;2023-04-15T01:02:42;8.50;99.90
29731;DHT22;16639;51.488;0.152;2023-04-15T01:05:10;8.50;99.90
29731;DHT22;16639;51.488;0.152;2023-04-15T01:07:37;8.70;99.90
29731;DHT22;16639;51.488;0.152;2023-04-15T01:10:05;8.50;99.90
29731;DHT22;16639;51.488;0.152;2023-04-15T01:12:33;8.60;99.90
29731;DHT22;16639;51.488;0.152;2023-04-15T01:15:01;8.50;99.90
29731;DHT22;16639;51.488;0.152;2023-04-15T01:17:28;8.50;99.90
29731;DHT22;16639;51.488;0.152;2023-04-15T01:19:56;8.50;99.90
29731;DHT22;16639;51.488;0.152;2023-04-15T01:22:26;8.40;99.90
29731;DHT22;16639;51.488;0.152;2023-04-15T01:25:01;8.40;99.90
29731;DHT22;16639;51.488;0.152;2023-04-15T01:27:40;8.40;99.90
29731;DHT22;16639;51.488;0.152;2023-04-15T01:30:39;8.40;99.90
29731;DHT22;16639;51.488;0.152;2023-04-15T01:33:26;8.30;99.90
29731;DHT22;16639;51.488;0.152;2023-04-15T01:36:21;8.40;99.90
29731;DHT22;16639;51.488;0.152;2023-04-15T01:39:01;8.40;99.90
29731;DHT22;16639;51.488;0.152;2023-04-15T01:41:32;8.40;99.90
29731;DHT22;16639;51.488;0.152;2023-04-15T01:44:36;8.40;99.90
29731;DHT22;16639;51.488;0.152;2023-04-15T01:47:27;8.40;99.90
29731;DHT22;16639;51.488;0.152;2023-04-15T01:50:24;8.10;99.90
29731;DHT22;16639;51.488;0.152;2023-04-15T01:53:01;8.40;99.90
29731;DHT22;16639;51.488;0.152;2023-04-15T01:56:04;8.40;99.90
29731;DHT22;16639;51.488;0.152;2023-04-15T01:59:01;8.30;99.90
29731;DHT22;16639;51.488;0.152;2023-04-15T02:01:36;8.40;99.90
29731;DHT22;16639;51.488;0.152;2023-04-15T02:04:15;8.30;99.90
29731;DHT22;16639;51.488;0.152;2023-04-15T02:06:53;8.30;99.90
29731;DHT22;16639;51.488;0.152;2023-04-15T02:10:01;8.40;99.90
29731;DHT22;16639;51.488;0.152;2023-04-15T02:12:46;8.30;99.90
29731;DHT22;16639;51.488;0.152;2023-04-15T02:15:14;9.80;99.90
29731;DHT22;16639;51.488;0.152;2023-04-15T02:17:41;8.30;99.90
29731;DHT22;16639;51.488;0.152;2023-04-15T02:20:12;8.40;99.90
29731;DHT22;16639;51.488;0.152;2023-04-15T02:22:39;8.10;99.90
29731;DHT22;16639;51.488;0.152;2023-04-15T02:25:07;8.40;99.90
29731;DHT22;16639;51.488;0.152;2023-04-15T02:27:35;8.40;99.90
29731;DHT22;16639;51.488;0.152;2023-04-15T02:30:02;8.30;99.90
29731;DHT22;16639;51.488;0.152;2023-04-15T02:32:30;8.40;99.90
29731;DHT22;16639;51.488;0.152;2023-04-15T02:35:04;8.40;99.90
29731;DHT22;16639;51.488;0.152;2023-04-15T02:37:32;8.40;99.90
29731;DHT22;16639;51.488;0.152;2023-04-15T02:40:03;8.30;99.90
29731;DHT22;16639;51.488;0.152;2023-04-15T02:42:31;8.00;99.90
29731;DHT22;16639;51.488;0.152;2023-04-15T02:44:58;8.20;99.90
29731;DHT22;16639;51.488;0.152;2023-04-15T02:47:25;8.20;99.90
29731;DHT22;16639;51.488;0.152;2023-04-15T02:49:53;8.20;99.90
29731;DHT22;16639;51.488;0.152;2023-04-15T02:52:20;8.20;99.90
29731;DHT22;16639;51.488;0.152;2023-04-15T02:54:47;8.20;99.90
29731;DHT22;16639;51.488;0.152;2023-04-15T02:57:15;8.20;99.90
29731;DHT22;16639;51.488;0.152;2023-04-15T02:59:42;8.20;99.90
29731;DHT22;16639;51.488;0.152;2023-04-15T03:02:09;8.30;99.90
29731;DHT22;16639;51.488;0.152;2023-04-15T03:04:37;8.30;99.90
29731;DHT22;16639;51.488;0.152;2023-04-15T03:07:06;8.30;99.90
29731;DHT22;16639;51.488;0.152;2023-04-15T03:09:33;8.20;99.90
29731;DHT22;16639;51.488;0.152;2023-04-15T03:12:01;8.90;99.90
29731;DHT22;16639;51.488;0.152;2023-04-15T03:14:29;8.20;99.90
29731;DHT22;16639;51.488;0.152;2023-04-15T03:16:56;8.20;99.90
29731;DHT22;16639;51.488;0.152;2023-04-15T03:19:25;8.20;99.90
29731;DHT22;16639;51.488;0.152;2023-04-15T03:21:57;8.20;99.90
29731;DHT22;16639;51.488;0.152;2023-04-15T03:24:25;8.40;99.90
29731;DHT22;16639;51.488;0.152;2023-04-15T03:26:53;8.30;99.90
29731;DHT22;16639;51.488;0.152;2023-04-15T03:29:21;8.50;99.90
29731;DHT22;16639;51.488;0.152;2023-04-15T03:31:48;8.20;99.90
29731;DHT22;16639;51.488;0.152;2023-04-15T03:34:15;8.20;99.90
29731;DHT22;16639;51.488;0.152;2023-04-15T03:36:42;8.50;99.90
29731;DHT22;16639;51.488;0.152;2023-04-15T03:39:10;8.10;99.90
29731;DHT22;16639;51.488;0.152;2023-04-15T03:41:37;8.10;99.90
29731;DHT22;16639;51.488;0.152;2023-04-15T03:44:05;8.30;99.90
29731;DHT22;16639;51.488;0.152;2023-04-15T03:46:32;8.10;99.90
29731;DHT22;16639;51.488;0.152;2023-04-15T03:49:01;8.10;99.90
29731;DHT22;16639;51.488;0.152;2023-04-15T03:51:28;8.10;99.90
29731;DHT22;16639;51.488;0.152;2023-04-15T03:53:56;8.10;99.90
29731;DHT22;16639;51.488;0.152;2023-04-15T03:56:24;8.10;99.90
29731;DHT22;16639;51.488;0.152;2023-04-15T03:58:52;8.10;99.90
29731;DHT22;16639;51.488;0.152;2023-04-15T04:01:19;8.10;99.90
29731;DHT22;16639;51.488;0.152;2023-04-15T04:03:47;8.10;99.90
29731;DHT22;16639;51.488;0.152;2023-04-15T04:06:14;8.20;99.90
29731;DHT22;16639;51.488;0.152;2023-04-15T04:08:42;8.00;99.90
29731;DHT22;16639;51.488;0.152;2023-04-15T04:11:10;8.10;99.90
29731;DHT22;16639;51.488;0.152;2023-04-15T04:13:37;8.00;99.90
29731;DHT22;16639;51.488;0.152;2023-04-15T04:16:05;8.10;99.90
29731;DHT22;16639;51.488;0.152;2023-04-15T04:18:32;8.10;99.90
29731;DHT22;16639;51.488;0.152;2023-04-15T04:21:00;8.10;99.90
29731;DHT22;16639;51.488;0.152;2023-04-15T04:23:27;8.10;99.90
29731;DHT22;16639;51.488;0.152;2023-04-15T04:25:55;8.10;99.90
29731;DHT22;16639;51.488;0.152;2023-04-15T04:28:22;8.60;99.90
29731;DHT22;16639;51.488;0.152;2023-04-15T04:30:56;8.20;99.90
29731;DHT22;16639;51.488;0.152;2023-04-15T04:34:30;8.20;99.90
29731;DHT22;16639;51.488;0.152;2023-04-15T04:37:14;8.20;99.90
29731;DHT22;16639;51.488;0.152;2023-04-15T04:40:10;8.20;99.90
29731;DHT22;16639;51.488;0.152;2023-04-15T04:42:42;8.20;99.90
29731;DHT22;16639;51.488;0.152;2023-04-15T04:45:23;8.20;99.90
29731;DHT22;16639;51.488;0.152;2023-04-15T04:48:29;8.20;99.90
29731;DHT22;16639;51.488;0.152;2023-04-15T04:50:56;8.20;99.90
29731;DHT22;16639;51.488;0.152;2023-04-15T04:53:24;8.20;99.90
29731;DHT22;16639;51.488;0.152;2023-04-15T04:55:51;8.10;99.90
29731;DHT22;16639;51.488;0.152;2023-04-15T04:58:19;8.10;99.90
29731;DHT22;16639;51.488;0.152;2023-04-15T05:00:46;8.10;99.90
29731;DHT22;16639;51.488;0.152;2023-04-15T05:03:14;8.10;99.90
29731;DHT22;16639;51.488;0.152;2023-04-15T05:05:41;8.10;99.90
29731;DHT22;16639;51.488;0.152;2023-04-15T05:08:09;8.10;99.90
29731;DHT22;16639;51.488;0.152;2023-04-15T05:10:37;8.10;99.90
29731;DHT22;16639;51.488;0.152;2023-04-15T05:13:04;8.00;99.90
29731;DHT22;16639;51.488;0.152;2023-04-15T05:15:31;8.10;99.90
29731;DHT22;16639;51.488;0.152;2023-04-15T05:18:01;8.90;99.90
29731;DHT22;16639;51.488;0.152;2023-04-15T05:20:28;8.20;99.90
29731;DHT22;16639;51.488;0.152;2023-04-15T05:22:55;8.20;99.90
29731;DHT22;16639;51.488;0.152;2023-04-15T05:25:23;8.20;99.90
29731;DHT22;16639;51.488;0.152;2023-04-15T05:27:50;8.30;99.90
29731;DHT22;16639;51.488;0.152;2023-04-15T05:30:17;8.30;99.90
29731;DHT22;16639;51.488;0.152;2023-04-15T05:32:45;8.20;99.90
29731;DHT22;16639;51.488;0.152;2023-04-15T05:35:12;8.20;99.90
29731;DHT22;16639;51.488;0.152;2023-04-15T05:37:39;8.20;99.90
29731;DHT22;16639;51.488;0.152;2023-04-15T05:40:07;8.20;99.90
29731;DHT22;16639;51.488;0.152;2023-04-15T05:42:36;8.80;99.90
29731;DHT22;16639;51.488;0.152;2023-04-15T05:45:04;8.50;99.90
29731;DHT22;16639;51.488;0.152;2023-04-15T05:47:35;8.30;99.90
29731;DHT22;16639;51.488;0.152;2023-04-15T05:50:04;8.40;99.90
29731;DHT22;16639;51.488;0.152;2023-04-15T05:52:31;8.40;99.90
29731;DHT22;16639;51.488;0.152;2023-04-15T05:54:59;8.30;99.90
29731;DHT22;16639;51.488;0.152;2023-04-15T05:57:26;8.40;99.90
29731;DHT22;16639;51.488;0.152;2023-04-15T05:59:54;8.40;99.90
29731;DHT22;16639;51.488;0.152;2023-04-15T06:02:23;8.40;99.90
29731;DHT22;16639;51.488;0.152;2023-04-15T06:04:50;8.40;99.90
29731;DHT22;16639;51.488;0.152;2023-04-15T06:07:18;8.40;99.90
29731;DHT22;16639;51.488;0.152;2023-04-15T06:09:45;8.40;99.90
29731;DHT22;16639;51.488;0.152;2023-04-15T06:12:13;8.40;99.90
29731;DHT22;16639;51.488;0.152;2023-04-15T06:14:40;8.50;99.90
29731;DHT22;16639;51.488;0.152;2023-04-15T06:17:08;8.50;99.90
29731;DHT22;16639;51.488;0.152;2023-04-15T06:19:35;8.50;99.90
29731;DHT22;16639;51.488;0.152;2023-04-15T06:22:02;8.50;99.90
29731;DHT22;16639;51.488;0.152;2023-04-15T06:24:30;8.40;99.90
29731;DHT22;16639;51.488;0.152;2023-04-15T06:26:59;8.40;99.90
29731;DHT22;16639;51.488;0.152;2023-04-15T06:29:26;8.40;99.90
29731;DHT22;16639;51.488;0.152;2023-04-15T06:31:53;8.40;99.90
29731;DHT22;16639;51.488;0.152;2023-04-15T06:34:22;8.40;99.90
29731;DHT22;16639;51.488;0.152;2023-04-15T06:36:50;8.40;99.90
29731;DHT22;16639;51.488;0.152;2023-04-15T06:39:17;8.50;99.90
29731;DHT22;16639;51.488;0.152;2023-04-15T06:41:44;8.20;99.90
29731;DHT22;16639;51.488;0.152;2023-04-15T06:44:12;8.50;99.90
29731;DHT22;16639;51.488;0.152;2023-04-15T06:46:39;8.50;99.90
29731;DHT22;16639;51.488;0.152;2023-04-15T06:49:06;8.50;99.90
29731;DHT22;16639;51.488;0.152;2023-04-15T06:51:34;8.50;99.90
29731;DHT22;16639;51.488;0.152;2023-04-15T06:54:03;8.20;99.90
29731;DHT22;16639;51.488;0.152;2023-04-15T06:56:32;8.60;99.90
29731;DHT22;16639;51.488;0.152;2023-04-15T06:58:59;8.60;99.90
29731;DHT22;16639;51.488;0.152;2023-04-15T07:01:28;8.60;99.90
29731;DHT22;16639;51.488;0.152;2023-04-15T07:03:55;8.60;99.90
29731;DHT22;16639;51.488;0.152;2023-04-15T07:06:23;8.60;99.90
29731;DHT22;16639;51.488;0.152;2023-04-15T07:08:50;8.60;99.90
29731;DHT22;16639;51.488;0.152;2023-04-15T07:11:18;8.60;99.90
29731;DHT22;16639;51.488;0.152;2023-04-15T07:13:47;8.60;99.90
29731;DHT22;16639;51.488;0.152;2023-04-15T07:16:14;8.60;99.90
29731;DHT22;16639;51.488;0.152;2023-04-15T07:18:41;8.60;99.90
29731;DHT22;16639;51.488;0.152;2023-04-15T07:21:09;8.60;99.90
29731;DHT22;16639;51.488;0.152;2023-04-15T07:23:37;8.60;99.90
29731;DHT22;16639;51.488;0.152;2023-04-15T07:26:04;8.60;99.90
29731;DHT22;16639;51.488;0.152;2023-04-15T07:28:32;8.60;99.90
29731;DHT22;16639;51.488;0.152;2023-04-15T07:30:59;8.60;99.90
29731;DHT22;16639;51.488;0.152;2023-04-15T07:33:26;8.70;99.90
29731;DHT22;16639;51.488;0.152;2023-04-15T07:35:54;8.70;99.90
29731;DHT22;16639;51.488;0.152;2023-04-15T07:38:21;8.70;99.90
29731;DHT22;16639;51.488;0.152;2023-04-15T07:40:49;8.70;99.90
29731;DHT22;16639;51.488;0.152;2023-04-15T07:43:16;8.70;99.90
29731;DHT22;16639;51.488;0.152;2023-04-15T07:45:44;8.70;99.90
29731;DHT22;16639;51.488;0.152;2023-04-15T07:48:12;8.70;99.90
29731;DHT22;16639;51.488;0.152;2023-04-15T07:50:39;8.60;99.90
29731;DHT22;16639;51.488;0.152;2023-04-15T07:53:06;8.70;99.90
29731;DHT22;16639;51.488;0.152;2023-04-15T07:55:34;8.70;99.90
29731;DHT22;16639;51.488;0.152;2023-04-15T07:58:01;8.70;99.90
29731;DHT22;16639;51.488;0.152;2023-04-15T08:00:28;8.70;99.90
29731;DHT22;16639;51.488;0.152;2023-04-15T08:02:56;8.80;99.90
29731;DHT22;16639;51.488;0.152;2023-04-15T08:05:25;8.80;99.90
29731;DHT22;16639;51.488;0.152;2023-04-15T08:07:52;8.90;99.90
29731;DHT22;16639;51.488;0.152;2023-04-15T08:10:20;8.90;99.90
29731;DHT22;16639;51.488;0.152;2023-04-15T08:12:48;8.60;99.90
29731;DHT22;16639;51.488;0.152;2023-04-15T08:15:15;9.00;99.90
29731;DHT22;16639;51.488;0.152;2023-04-15T08:17:43;9.10;99.90
29731;DHT22;16639;51.488;0.152;2023-04-15T08:20:11;9.20;99.90
29731;DHT22;16639;51.488;0.152;2023-04-15T08:22:39;9.30;99.90
29731;DHT22;16639;51.488;0.152;2023-04-15T08:25:07;9.30;99.90
29731;DHT22;16639;51.488;0.152;2023-04-15T08:27:36;9.30;99.90
29731;DHT22;16639;51.488;0.152;2023-04-15T08:30:04;9.40;99.90
29731;DHT22;16639;51.488;0.152;2023-04-15T08:32:32;9.40;99.90
29731;DHT22;16639;51.488;0.152;2023-04-15T08:34:59;9.40;99.90
29731;DHT22;16639;51.488;0.152;2023-04-15T08:37:27;9.50;99.90
29731;DHT22;16639;51.488;0.152;2023-04-15T08:39:55;9.50;99.90
29731;DHT22;16639;51.488;0.152;2023-04-15T08:42:28;9.60;99.90
29731;DHT22;16639;51.488;0.152;2023-04-15T08:44:59;9.80;99.90
29731;DHT22;16639;51.488;0.152;2023-04-15T08:47:29;9.70;99.90
29731;DHT22;16639;51.488;0.152;2023-04-15T08:49:58;9.80;99.90
29731;DHT22;16639;51.488;0.152;2023-04-15T08:52:26;9.80;99.90
29731;DHT22;16639;51.488;0.152;2023-04-15T08:54:56;9.90;99.90
29731;DHT22;16639;51.488;0.152;2023-04-15T08:57:26;10.00;99.90
29731;DHT22;16639;51.488;0.152;2023-04-15T08:59:57;10.10;99.90
29731;DHT22;16639;51.488;0.152;2023-04-15T09:02:25;10.10;99.90
29731;DHT22;16639;51.488;0.152;2023-04-15T09:04:53;10.20;99.90
29731;DHT22;16639;51.488;0.152;2023-04-15T09:07:21;10.20;99.90
29731;DHT22;16639;51.488;0.152;2023-04-15T09:09:48;10.30;99.90
29731;DHT22;16639;51.488;0.152;2023-04-15T09:12:16;10.30;99.90
29731;DHT22;16639;51.488;0.152;2023-04-15T09:14:45;9.50;99.90
29731;DHT22;16639;51.488;0.152;2023-04-15T09:17:18;10.30;99.90
29731;DHT22;16639;51.488;0.152;2023-04-15T09:19:46;10.30;99.90
29731;DHT22;16639;51.488;0.152;2023-04-15T09:22:14;10.30;99.90
29731;DHT22;16639;51.488;0.152;2023-04-15T09:24:41;11.20;99.90
29731;DHT22;16639;51.488;0.152;2023-04-15T09:27:09;10.30;99.90
29731;DHT22;16639;51.488;0.152;2023-04-15T09:29:37;10.30;99.90
29731;DHT22;16639;51.488;0.152;2023-04-15T09:32:14;10.30;99.90
29731;DHT22;16639;51.488;0.152;2023-04-15T09:34:42;10.40;99.90
29731;DHT22;16639;51.488;0.152;2023-04-15T09:37:09;10.30;99.90
29731;DHT22;16639;51.488;0.152;2023-04-15T09:39:48;10.30;99.90
29731;DHT22;16639;51.488;0.152;2023-04-15T09:42:16;10.40;99.90
29731;DHT22;16639;51.488;0.152;2023-04-15T09:44:50;10.40;99.90
29731;DHT22;16639;51.488;0.152;2023-04-15T09:47:27;10.50;99.90
29731;DHT22;16639;51.488;0.152;2023-04-15T09:49:55;10.50;99.90
29731;DHT22;16639;51.488;0.152;2023-04-15T09:52:23;10.60;99.90
29731;DHT22;16639;51.488;0.152;2023-04-15T09:54:52;10.60;99.90
29731;DHT22;16639;51.488;0.152;2023-04-15T09:57:21;10.60;99.90
29731;DHT22;16639;51.488;0.152;2023-04-15T09:59:50;10.60;99.90
29731;DHT22;16639;51.488;0.152;2023-04-15T10:02:18;10.70;99.90
29731;DHT22;16639;51.488;0.152;2023-04-15T10:04:49;10.60;99.90
29731;DHT22;16639;51.488;0.152;2023-04-15T10:07:19;10.60;99.90
29731;DHT22;16639;51.488;0.152;2023-04-15T10:09:48;10.70;99.90
29731;DHT22;16639;51.488;0.152;2023-04-15T10:12:16;10.60;99.90
29731;DHT22;16639;51.488;0.152;2023-04-15T10:14:51;10.80;99.90
29731;DHT22;16639;51.488;0.152;2023-04-15T10:17:21;10.70;99.90
29731;DHT22;16639;51.488;0.152;2023-04-15T10:19:52;10.80;99.90
29731;DHT22;16639;51.488;0.152;2023-04-15T10:22:21;10.80;99.90
29731;DHT22;16639;51.488;0.152;2023-04-15T10:24:49;10.60;99.90
29731;DHT22;16639;51.488;0.152;2023-04-15T10:27:18;10.80;99.90
29731;DHT22;16639;51.488;0.152;2023-04-15T10:29:48;10.90;99.90
29731;DHT22;16639;51.488;0.152;2023-04-15T10:32:20;10.90;99.90
29731;DHT22;16639;51.488;0.152;2023-04-15T10:34:48;10.90;99.90
29731;DHT22;16639;51.488;0.152;2023-04-15T10:37:40;10.90;99.90
29731;DHT22;16639;51.488;0.152;2023-04-15T10:40:30;11.00;99.90
29731;DHT22;16639;51.488;0.152;2023-04-15T10:43:01;11.00;99.90
29731;DHT22;16639;51.488;0.152;2023-04-15T10:45:36;11.00;99.90
29731;DHT22;16639;51.488;0.152;2023-04-15T10:48:06;11.30;99.90
29731;DHT22;16639;51.488;0.152;2023-04-15T10:50:36;11.10;99.90
29731;DHT22;16639;51.488;0.152;2023-04-15T10:53:03;11.00;99.90
29731;DHT22;16639;51.488;0.152;2023-04-15T10:55:33;11.20;99.90
29731;DHT22;16639;51.488;0.152;2023-04-15T10:58:01;11.30;99.90
29731;DHT22;16639;51.488;0.152;2023-04-15T11:00:30;11.40;99.90
29731;DHT22;16639;51.488;0.152;2023-04-15T11:02:58;11.50;99.90
29731;DHT22;16639;51.488;0.152;2023-04-15T11:08:09;11.60;99.90
29731;DHT22;16639;51.488;0.152;2023-04-15T11:15:36;11.70;99.90
29731;DHT22;16639;51.488;0.152;2023-04-15T11:18:25;11.60;99.90
29731;DHT22;16639;51.488;0.152;2023-04-15T11:20:59;11.60;99.90
29731;DHT22;16639;51.488;0.152;2023-04-15T11:23:31;11.60;99.90
29731;DHT22;16639;51.488;0.152;2023-04-15T11:26:01;11.70;99.90
29731;DHT22;16639;51.488;0.152;2023-04-15T11:28:30;10.90;99.90
29731;DHT22;16639;51.488;0.152;2023-04-15T11:31:05;11.90;99.90
29731;DHT22;16639;51.488;0.152;2023-04-15T11:33:33;12.00;99.90
29731;DHT22;16639;51.488;0.152;2023-04-15T11:36:00;12.10;99.90
29731;DHT22;16639;51.488;0.152;2023-04-15T11:38:28;12.00;99.90
29731;DHT22;16639;51.488;0.152;2023-04-15T11:40:55;12.10;99.90
29731;DHT22;16639;51.488;0.152;2023-04-15T11:43:23;12.10;99.90
29731;DHT22;16639;51.488;0.152;2023-04-15T11:45:56;12.20;99.90
29731;DHT22;16639;51.488;0.152;2023-04-15T11:48:31;12.30;99.90
29731;DHT22;16639;51.488;0.152;2023-04-15T11:50:59;12.30;99.90
29731;DHT22;16639;51.488;0.152;2023-04-15T11:53:47;12.30;99.90
29731;DHT22;16639;51.488;0.152;2023-04-15T11:56:25;12.30;99.90
29731;DHT22;16639;51.488;0.152;2023-04-15T11:58:54;12.30;99.90
29731;DHT22;16639;51.488;0.152;2023-04-15T12:01:33;12.30;99.90
29731;DHT22;16639;51.488;0.152;2023-04-15T12:04:01;12.40;99.90
29731;DHT22;16639;51.488;0.152;2023-04-15T12:06:33;12.20;99.90
29731;DHT22;16639;51.488;0.152;2023-04-15T12:11:56;12.10;99.90
29731;DHT22;16639;51.488;0.152;2023-04-15T12:14:28;12.20;99.90
29731;DHT22;16639;51.488;0.152;2023-04-15T12:17:02;12.30;99.90
29731;DHT22;16639;51.488;0.152;2023-04-15T12:19:35;12.40;99.90
29731;DHT22;16639;51.488;0.152;2023-04-15T12:22:05;12.40;99.90
29731;DHT22;16639;51.488;0.152;2023-04-15T12:24:34;12.50;99.90
29731;DHT22;16639;51.488;0.152;2023-04-15T12:27:06;12.50;99.90
29731;DHT22;16639;51.488;0.152;2023-04-15T12:29:35;12.70;99.90
29731;DHT22;16639;51.488;0.152;2023-04-15T12:32:07;12.80;99.90
29731;DHT22;16639;51.488;0.152;2023-04-15T12:34:48;12.80;99.90
29731;DHT22;16639;51.488;0.152;2023-04-15T12:37:16;12.70;99.90
29731;DHT22;16639;51.488;0.152;2023-04-15T12:39:46;12.80;99.90
29731;DHT22;16639;51.488;0.152;2023-04-15T12:42:16;12.70;99.90
29731;DHT22;16639;51.488;0.152;2023-04-15T12:44:43;12.80;99.90
29731;DHT22;16639;51.488;0.152;2023-04-15T12:47:11;12.80;99.90
29731;DHT22;16639;51.488;0.152;2023-04-15T12:49:39;12.70;99.90
29731;DHT22;16639;51.488;0.152;2023-04-15T12:52:07;12.90;99.90
29731;DHT22;16639;51.488;0.152;2023-04-15T12:54:34;12.90;99.90
29731;DHT22;16639;51.488;0.152;2023-04-15T12:57:02;12.50;99.90
29731;DHT22;16639;51.488;0.152;2023-04-15T12:59:34;12.90;99.90
29731;DHT22;16639;51.488;0.152;2023-04-15T13:02:03;12.80;99.90
29731;DHT22;16639;51.488;0.152;2023-04-15T13:04:31;12.80;99.90
29731;DHT22;16639;51.488;0.152;2023-04-15T13:06:58;12.80;99.90
29731;DHT22;16639;51.488;0.152;2023-04-15T13:09:26;12.90;99.90
29731;DHT22;16639;51.488;0.152;2023-04-15T13:11:53;12.90;99.90
29731;DHT22;16639;51.488;0.152;2023-04-15T13:14:21;13.00;99.90
29731;DHT22;16639;51.488;0.152;2023-04-15T13:16:48;13.00;99.90
29731;DHT22;16639;51.488;0.152;2023-04-15T13:19:15;13.00;99.90
29731;DHT22;16639;51.488;0.152;2023-04-15T13:21:43;13.10;99.90
29731;DHT22;16639;51.488;0.152;2023-04-15T13:24:10;13.20;99.90
29731;DHT22;16639;51.488;0.152;2023-04-15T13:26:37;13.30;99.90
29731;DHT22;16639;51.488;0.152;2023-04-15T13:29:06;13.40;99.90
29731;DHT22;16639;51.488;0.152;2023-04-15T13:31:38;13.50;99.90
29731;DHT22;16639;51.488;0.152;2023-04-15T13:34:06;13.50;99.90
29731;DHT22;16639;51.488;0.152;2023-04-15T13:36:34;13.50;99.90
29731;DHT22;16639;51.488;0.152;2023-04-15T13:39:01;13.50;99.90
29731;DHT22;16639;51.488;0.152;2023-04-15T13:41:29;13.50;99.90
29731;DHT22;16639;51.488;0.152;2023-04-15T13:43:57;13.50;99.90
29731;DHT22;16639;51.488;0.152;2023-04-15T13:46:24;13.40;99.90
29731;DHT22;16639;51.488;0.152;2023-04-15T13:48:54;13.40;99.90
29731;DHT22;16639;51.488;0.152;2023-04-15T13:51:21;13.30;99.90
29731;DHT22;16639;51.488;0.152;2023-04-15T13:53:49;13.30;99.90
29731;DHT22;16639;51.488;0.152;2023-04-15T13:56:16;13.20;99.90
29731;DHT22;16639;51.488;0.152;2023-04-15T13:58:44;13.30;99.90
29731;DHT22;16639;51.488;0.152;2023-04-15T14:01:11;13.30;99.90
29731;DHT22;16639;51.488;0.152;2023-04-15T14:03:39;13.30;99.90
29731;DHT22;16639;51.488;0.152;2023-04-15T14:06:07;13.40;99.90
29731;DHT22;16639;51.488;0.152;2023-04-15T14:08:34;13.70;99.90
29731;DHT22;16639;51.488;0.152;2023-04-15T14:11:02;13.60;99.90
29731;DHT22;16639;51.488;0.152;2023-04-15T14:13:29;13.70;99.90
29731;DHT22;16639;51.488;0.152;2023-04-15T14:15:57;13.80;99.90
29731;DHT22;16639;51.488;0.152;2023-04-15T14:18:24;13.90;99.90
29731;DHT22;16639;51.488;0.152;2023-04-15T14:20:52;14.00;99.90
29731;DHT22;16639;51.488;0.152;2023-04-15T14:23:19;14.00;99.90
29731;DHT22;16639;51.488;0.152;2023-04-15T14:25:47;13.90;99.90
29731;DHT22;16639;51.488;0.152;2023-04-15T14:28:15;13.90;99.90
29731;DHT22;16639;51.488;0.152;2023-04-15T14:30:42;13.80;99.90
29731;DHT22;16639;51.488;0.152;2023-04-15T14:33:10;13.80;99.90
29731;DHT22;16639;51.488;0.152;2023-04-15T14:35:38;13.70;99.90
29731;DHT22;16639;51.488;0.152;2023-04-15T14:38:05;13.70;99.90
29731;DHT22;16639;51.488;0.152;2023-04-15T14:40:37;13.70;99.90
29731;DHT22;16639;51.488;0.152;2023-04-15T14:43:04;13.70;99.90
29731;DHT22;16639;51.488;0.152;2023-04-15T14:45:32;13.50;99.90
29731;DHT22;16639;51.488;0.152;2023-04-15T14:47:59;13.50;99.90
29731;DHT22;16639;51.488;0.152;2023-04-15T14:50:27;13.50;99.90
29731;DHT22;16639;51.488;0.152;2023-04-15T14:52:55;13.60;99.90
29731;DHT22;16639;51.488;0.152;2023-04-15T14:55:22;13.70;99.90
29731;DHT22;16639;51.488;0.152;2023-04-15T14:57:49;13.70;99.90
29731;DHT22;16639;51.488;0.152;2023-04-15T15:00:17;13.80;99.90
29731;DHT22;16639;51.488;0.152;2023-04-15T15:02:44;13.90;99.90
29731;DHT22;16639;51.488;0.152;2023-04-15T15:05:13;14.00;99.90
29731;DHT22;16639;51.488;0.152;2023-04-15T15:07:42;13.90;99.90
29731;DHT22;16639;51.488;0.152;2023-04-15T15:10:10;13.80;99.90
29731;DHT22;16639;51.488;0.152;2023-04-15T15:12:37;13.70;99.90
29731;DHT22;16639;51.488;0.152;2023-04-15T15:15:05;13.70;99.90
29731;DHT22;16639;51.488;0.152;2023-04-15T15:17:53;13.60;99.90
29731;DHT22;16639;51.488;0.152;2023-04-15T15:20:21;13.60;99.90
29731;DHT22;16639;51.488;0.152;2023-04-15T15:22:49;13.60;99.90
29731;DHT22;16639;51.488;0.152;2023-04-15T15:25:16;13.60;99.90
29731;DHT22;16639;51.488;0.152;2023-04-15T15:27:45;13.80;99.90
29731;DHT22;16639;51.488;0.152;2023-04-15T15:30:20;14.00;99.90
29731;DHT22;16639;51.488;0.152;2023-04-15T15:32:47;14.10;99.90
29731;DHT22;16639;51.488;0.152;2023-04-15T15:35:15;14.30;99.90
29731;DHT22;16639;51.488;0.152;2023-04-15T15:37:44;14.40;99.90
29731;DHT22;16639;51.488;0.152;2023-04-15T15:40:11;14.40;99.90
29731;DHT22;16639;51.488;0.152;2023-04-15T15:42:39;14.40;99.90
29731;DHT22;16639;51.488;0.152;2023-04-15T15:45:07;14.20;99.90
29731;DHT22;16639;51.488;0.152;2023-04-15T15:47:34;13.90;99.90
29731;DHT22;16639;51.488;0.152;2023-04-15T15:50:02;13.90;99.90
29731;DHT22;16639;51.488;0.152;2023-04-15T15:52:32;13.70;99.90
29731;DHT22;16639;51.488;0.152;2023-04-15T15:54:59;13.60;99.90
29731;DHT22;16639;51.488;0.152;2023-04-15T15:57:28;13.40;99.90
29731;DHT22;16639;51.488;0.152;2023-04-15T15:59:55;13.30;99.90
29731;DHT22;16639;51.488;0.152;2023-04-15T16:02:38;13.20;99.90
29731;DHT22;16639;51.488;0.152;2023-04-15T16:05:09;13.00;99.90
29731;DHT22;16639;51.488;0.152;2023-04-15T16:07:37;12.90;99.90